Time;durP1;ratioP1;P1;durP2;ratioP2;P2;SDS_P1;SDS_P2;PMS_P1;PMS_P2;Temp;Humidity;BMP_temperature;BMP_pressure;BME280_temperature;BME280_humidity;BME280_pressure;Samples;Min_cycle;Max_cycle;Signal;HPM_P1;HPM_P2
2020/12/27 00:10:29;;;;;;;7.67;5.97;;;;;;;0.92;63.60;100815.80;1740821;80;21205;-85
2020/12/27 00:23:55;;;;;;;12.27;8.13;;;;;;;0.70;64.46;100827.07;1766636;79;22437;-91
2020/12/27 00:27:03;;;;;;;12.60;8.80;;;;;;;0.67;64.61;100822.03;1817658;76;26591;-91
2020/12/27 00:29:32;;;;;;;13.10;8.87;;;;;;;0.68;64.62;100827.63;1778225;79;21369;-91
2020/12/27 00:32:04;;;;;;;7.23;6.07;;;;;;;0.76;64.67;100833.17;1767769;78;21297;-90
2020/12/27 00:34:41;;;;;;;8.53;7.20;;;;;;;0.80;64.31;100831.16;1744410;77;21171;-88
2020/12/27 00:53:47;;;;;;;8.23;6.77;;;;;;;1.12;63.56;100831.39;1665856;85;21290;-86
2020/12/27 00:56:15;;;;;;;8.70;7.87;;;;;;;1.18;63.43;100828.30;1675690;84;21234;-84
2020/12/27 00:58:46;;;;;;;10.03;7.00;;;;;;;1.20;63.38;100834.27;1660381;84;21204;-84
2020/12/27 01:01:14;;;;;;;8.00;6.40;;;;;;;1.26;63.31;100832.52;1664344;84;21330;-86
2020/12/27 01:03:56;;;;;;;11.13;5.77;;;;;;;1.27;62.75;100835.48;1652272;85;21230;-86
2020/12/27 01:48:28;;;;;;;6.50;5.53;;;;;;;1.49;62.59;100856.20;1735050;79;21178;-85
2020/12/27 01:51:07;;;;;;;6.23;5.63;;;;;;;1.52;62.32;100861.20;1774526;78;23090;-85
2020/12/27 01:53:36;;;;;;;5.67;4.97;;;;;;;1.49;62.20;100854.40;1720686;82;21212;-85
2020/12/27 01:56:12;;;;;;;5.67;5.17;;;;;;;1.48;62.08;100868.96;1719254;82;21310;-90
2020/12/27 01:58:50;;;;;;;6.40;5.37;;;;;;;1.48;62.01;100863.70;1724360;82;21180;-84
2020/12/27 02:01:24;;;;;;;4.57;4.17;;;;;;;1.47;62.18;100873.39;1717648;82;21184;-86
2020/12/27 02:04:03;;;;;;;6.17;5.10;;;;;;;1.47;62.34;100872.08;1709635;82;21236;-87
2020/12/27 02:07:28;;;;;;;;;;;;;;;;;;;;;
2020/12/27 02:10:31;;;;;;;;;;;;;;;;;;;;;
2020/12/27 02:17:40;;;;;;;6.27;5.03;;;;;;;1.50;62.45;100894.15;1565323;90;21248;-91
2020/12/27 02:20:14;;;;;;;7.13;6.43;;;;;;;1.56;62.52;100882.34;1802184;79;23147;-91
2020/12/27 02:22:44;;;;;;;7.20;5.37;;;;;;;1.61;62.36;100896.46;1756325;80;21196;-89
2020/12/27 02:25:17;;;;;;;11.03;8.37;;;;;;;1.61;62.22;100892.52;1727983;81;21184;-91
2020/12/27 02:28:14;;;;;;;10.13;6.77;;;;;;;1.64;62.20;100890.50;1765063;80;21302;-93
2020/12/27 02:30:50;;;;;;;6.60;5.17;;;;;;;1.65;62.10;100896.09;1691502;83;21344;-90
2020/12/27 02:44:18;;;;;;;5.80;5.13;;;;;;;1.76;61.96;100899.23;1780147;79;22507;-86
2020/12/27 02:47:13;;;;;;;6.07;4.87;;;;;;;1.74;62.03;100911.17;1822611;77;22943;-84
2020/12/27 02:50:13;;;;;;;6.65;5.67;;;;;;;1.75;61.83;100915.48;1693515;81;21279;-89
2020/12/27 04:15:00;;;;;;;5.27;4.73;;;;;;;2.77;58.92;100993.56;1780411;78;21144;-85
2020/12/27 04:44:45;;;;;;;5.57;4.93;;;;;;;2.14;60.83;101022.48;1722057;78;21302;-90
2020/12/27 04:47:19;;;;;;;11.47;7.90;;;;;;;2.08;61.12;101021.66;1710852;82;21125;-86
2020/12/27 04:50:26;;;;;;;15.03;10.27;;;;;;;1.88;61.01;100988.97;1714535;82;21185;-88
2020/12/27 04:52:58;;;;;;;15.33;11.60;;;;;;;2.11;61.08;101031.09;1722976;82;21256;-89
2020/12/27 04:55:32;;;;;;;12.93;8.67;;;;;;;2.11;61.18;101033.72;1731032;82;21230;-89
2020/12/27 04:58:35;;;;;;;8.53;6.40;;;;;;;2.06;61.18;101039.34;1814158;77;22666;-87
2020/12/27 05:51:00;;;;;;;9.30;5.63;;;;;;;1.89;62.15;101108.14;1670621;80;21526;-90
2020/12/27 06:07:25;;;;;;;;;;;;;;;;;;;;;
2020/12/27 06:34:55;;;;;;;6.47;5.87;;;;;;;1.98;62.64;101168.39;1406471;96;21579;31
2020/12/27 06:38:21;;;;;;;8.60;6.20;;;;;;;2.05;62.82;101181.45;1774387;79;22741;-89
2020/12/27 06:41:09;;;;;;;9.70;7.00;;;;;;;2.03;62.86;101190.77;1759822;79;21211;-90
2020/12/27 06:43:57;;;;;;;8.50;7.20;;;;;;;2.04;62.70;101195.09;1745074;80;21330;-88
2020/12/27 06:53:14;;;;;;;7.13;6.33;;;;;;;2.09;62.63;101200.86;1652723;83;21277;-92
2020/12/27 06:55:54;;;;;;;7.60;6.13;;;;;;;2.11;62.70;101212.56;1663060;83;21171;-90
2020/12/27 06:58:30;;;;;;;9.57;7.27;;;;;;;2.13;62.55;101206.74;1645374;84;21760;-91
2020/12/27 07:01:29;;;;;;;8.70;6.87;;;;;;;2.17;62.49;101211.27;1636455;83;21200;-95
2020/12/27 07:04:26;;;;;;;18.87;15.68;;;;;;;2.24;62.50;101215.14;1786385;77;28232;-89
2020/12/27 07:07:23;;;;;;;17.43;13.43;;;;;;;2.40;61.86;101209.12;1729101;81;21241;-89
2020/12/27 07:10:08;;;;;;;35.53;24.33;;;;;;;2.60;61.21;101206.33;1792913;78;23454;-90
2020/12/27 07:12:36;;;;;;;29.00;20.70;;;;;;;2.55;61.14;101210.25;1789164;79;21489;-88
2020/12/27 07:15:13;;;;;;;33.30;21.67;;;;;;;2.52;61.12;101203.41;1793251;78;22241;-89
2020/12/27 07:17:42;;;;;;;38.93;25.90;;;;;;;2.52;61.28;101208.22;1756348;80;21148;-89
2020/12/27 07:20:15;;;;;;;37.03;26.10;;;;;;;2.54;61.24;101210.70;1779300;80;21289;-90
2020/12/27 07:25:53;;;;;;;26.53;17.00;;;;;;;2.62;60.76;101201.78;1815001;77;22923;-87
2020/12/27 07:28:25;;;;;;;26.67;19.00;;;;;;;2.57;60.76;101204.39;1755782;80;21171;-86
2020/12/27 07:31:01;;;;;;;19.17;13.53;;;;;;;2.58;60.84;101213.50;1790248;78;21145;-88
2020/12/27 07:33:35;;;;;;;16.83;10.90;;;;;;;2.57;60.71;101212.29;1738595;80;21189;-84
2020/12/27 07:36:06;;;;;;;12.07;9.27;;;;;;;2.55;60.76;101215.03;1760053;77;21043;-81
2020/12/27 07:39:02;;;;;;;12.27;7.43;;;;;;;2.49;60.95;101212.87;1720847;82;21155;-83
2020/12/27 07:41:40;;;;;;;13.90;7.57;;;;;;;2.49;60.96;101219.45;1713558;82;21360;-86
2020/12/27 07:44:14;;;;;;;9.73;7.67;;;;;;;2.43;61.11;101216.80;1713971;82;21174;-82
2020/12/27 07:46:41;;;;;;;14.70;9.70;;;;;;;2.47;61.08;101222.67;1717405;82;21329;-86
2020/12/27 07:49:10;;;;;;;11.23;9.37;;;;;;;2.45;61.13;101214.02;1719901;82;21202;-83
2020/12/27 07:51:37;;;;;;;14.27;9.50;;;;;;;2.46;61.18;101216.55;1722004;82;21210;-83
2020/12/27 07:54:04;;;;;;;15.43;8.80;;;;;;;2.45;61.25;101214.02;1716122;82;21206;-83
2020/12/27 07:56:32;;;;;;;11.67;8.17;;;;;;;2.48;61.23;101214.64;1719052;82;21641;-84
2020/12/27 07:59:03;;;;;;;12.27;10.10;;;;;;;2.49;61.43;101216.33;1687505;85;21235;-85
2020/12/27 08:01:33;;;;;;;11.50;9.37;;;;;;;2.53;61.28;101223.52;1658961;86;21453;-81
2020/12/27 08:04:06;;;;;;;10.73;9.30;;;;;;;2.57;61.04;101217.55;1687832;83;21219;-85
2020/12/27 08:06:41;;;;;;;13.50;10.33;;;;;;;2.50;61.01;101236.41;1710130;81;21072;-85
2020/12/27 08:09:12;;;;;;;13.43;10.40;;;;;;;2.46;60.99;101234.14;1732120;81;21208;-82
2020/12/27 08:11:42;;;;;;;14.33;11.30;;;;;;;2.42;61.28;101243.22;1734554;81;21347;-82
2020/12/27 08:14:11;;;;;;;13.03;10.00;;;;;;;2.46;61.48;101242.03;1732569;81;21246;-84
2020/12/27 08:16:40;;;;;;;17.90;9.60;;;;;;;2.49;61.59;101254.98;1731054;81;21215;-80
2020/12/27 08:19:17;;;;;;;16.33;10.60;;;;;;;2.53;61.58;101257.25;1741267;81;21633;-82
2020/12/27 08:21:45;;;;;;;15.18;11.15;;;;;;;2.55;61.18;101264.20;1709455;83;21207;-82
2020/12/27 08:24:15;;;;;;;18.40;10.93;;;;;;;2.57;61.15;101266.25;1725612;81;21179;-84
2020/12/27 08:26:47;;;;;;;15.13;10.00;;;;;;;2.55;61.38;101270.78;1721677;82;21318;-85
2020/12/27 08:29:21;;;;;;;14.70;10.97;;;;;;;2.58;61.57;101270.54;1728081;82;21337;-82
2020/12/27 08:32:05;;;;;;;12.23;9.50;;;;;;;2.60;61.19;101271.27;1724537;82;21326;-84
2020/12/27 08:34:33;;;;;;;15.60;11.23;;;;;;;2.60;60.73;101276.08;1726269;82;21182;-84
2020/12/27 08:37:00;;;;;;;13.03;9.27;;;;;;;2.59;60.79;101278.33;1684357;83;21112;-81
2020/12/27 08:39:40;;;;;;;6.33;4.60;;;;;;;2.55;60.63;101274.25;1656926;84;21205;-84
2020/12/27 08:42:19;;;;;;;6.10;5.00;;;;;;;2.57;58.00;101271.52;1704106;83;21202;-84
2020/12/27 08:45:16;;;;;;;5.93;4.20;;;;;;;2.61;58.35;101269.01;1784156;77;23465;-85
2020/12/27 08:48:01;;;;;;;12.37;9.37;;;;;;;2.59;58.13;101274.87;1762490;80;21277;-81
2020/12/27 08:50:40;;;;;;;13.20;10.57;;;;;;;2.61;59.39;101275.59;1781439;79;21174;-82
2020/12/27 08:53:10;;;;;;;16.03;11.57;;;;;;;2.60;60.52;101273.45;1749983;79;21171;-84
2020/12/27 08:55:38;;;;;;;15.50;10.93;;;;;;;2.58;61.11;101267.45;1756171;79;21337;-85
2020/12/27 08:58:12;;;;;;;15.57;10.57;;;;;;;2.53;61.18;101261.20;1779123;79;21167;-84
2020/12/27 09:00:39;;;;;;;17.23;11.67;;;;;;;2.54;61.44;101258.08;1774290;79;21324;-83
2020/12/27 09:03:10;;;;;;;14.20;10.17;;;;;;;2.55;61.30;101261.58;1769943;80;21319;-84
2020/12/27 09:05:38;;;;;;;15.97;11.07;;;;;;;2.53;61.66;101256.42;1704544;81;21095;-85
2020/12/27 09:08:17;;;;;;;16.83;11.90;;;;;;;2.55;61.67;101262.89;1677409;83;21119;-86
2020/12/27 09:10:48;;;;;;;16.70;13.73;;;;;;;2.56;61.54;101267.19;1655937;83;21174;-82
2020/12/27 09:13:19;;;;;;;18.70;12.63;;;;;;;2.57;61.61;101271.52;1637532;86;21702;-84
2020/12/27 09:15:48;;;;;;;20.80;12.63;;;;;;;2.59;61.60;101269.60;1660563;85;21325;-86
2020/12/27 09:18:30;;;;;;;17.47;13.30;;;;;;;2.57;61.77;101256.55;1642071;85;21178;-85
2020/12/27 09:21:06;;;;;;;17.20;11.40;;;;;;;2.56;61.71;101252.23;1651761;85;21222;-86
2020/12/27 09:23:33;;;;;;;13.63;11.10;;;;;;;2.58;62.17;101255.61;1662942;85;21239;-86
2020/12/27 09:26:10;;;;;;;15.20;11.07;;;;;;;2.62;61.86;101243.03;1652161;85;21566;-83
2020/12/27 09:28:39;;;;;;;12.13;9.63;;;;;;;2.61;61.38;101251.90;1662826;85;21204;-83
2020/12/27 09:31:12;;;;;;;17.00;12.60;;;;;;;2.62;61.15;101257.52;1663157;85;21197;-85
2020/12/27 09:33:46;;;;;;;18.17;12.00;;;;;;;2.65;61.15;101254.17;1651956;85;21664;-85
2020/12/27 09:36:14;;;;;;;13.23;11.10;;;;;;;2.67;61.37;101246.17;1662796;84;21095;-83
2020/12/27 09:38:45;;;;;;;12.40;10.23;;;;;;;2.71;61.14;101253.74;1668188;84;21614;-84
2020/12/27 09:44:27;;;;;;;16.80;13.95;;;;;;;2.76;60.51;101249.44;1830635;75;28032;-88
2020/12/27 09:47:02;;;;;;;13.50;10.53;;;;;;;2.93;60.16;101254.26;1805312;77;21160;-86
2020/12/27 09:49:31;;;;;;;13.67;10.77;;;;;;;3.14;59.91;101256.70;1808609;77;21159;-86
2020/12/27 09:55:05;;;;;;;12.67;9.77;;;;;;;3.24;58.97;101250.62;1800566;78;22968;-83
2020/12/27 09:57:31;;;;;;;13.47;11.10;;;;;;;3.08;58.76;101256.69;1732379;81;21796;-84
2020/12/27 10:00:03;;;;;;;11.47;8.90;;;;;;;2.95;58.62;101255.95;1725607;81;21188;-85
2020/12/27 10:02:31;;;;;;;12.50;8.60;;;;;;;2.89;58.50;101258.57;1705120;83;21695;-85
2020/12/27 10:04:58;;;;;;;9.23;7.20;;;;;;;2.85;58.07;101263.23;1660154;83;21807;-85
2020/12/27 10:07:25;;;;;;;12.07;7.13;;;;;;;2.82;57.39;101266.08;1681922;83;21194;-86
2020/12/27 10:09:52;;;;;;;8.13;6.23;;;;;;;2.71;56.89;101255.05;1690303;84;21337;-85
2020/12/27 10:12:26;;;;;;;7.80;6.57;;;;;;;2.68;56.88;101257.08;1695582;84;21168;-87
2020/12/27 10:15:16;;;;;;;5.37;4.87;;;;;;;2.63;57.06;101263.98;1701873;83;21240;-82
2020/12/27 10:17:45;;;;;;;6.50;5.80;;;;;;;2.60;56.23;101266.86;1687969;84;21224;-85
2020/12/27 10:20:12;;;;;;;4.67;3.97;;;;;;;2.57;57.36;101264.94;1692627;84;21448;-85
2020/12/27 10:22:38;;;;;;;;;;;;;;;2.60;56.81;101261.59;1695401;83;21237;-87
2020/12/27 10:25:23;;;;;;;;;;;;;;;;;;;;;
2020/12/27 10:28:01;;;;;;;1.97;1.87;;;;;;;2.70;55.58;101257.80;1823795;78;25716;-85
2020/12/27 10:30:31;;;;;;;1.83;1.73;;;;;;;2.73;55.41;101265.45;1784007;79;21503;-85
2020/12/27 10:33:00;;;;;;;8.53;3.47;;;;;;;2.83;54.92;101263.82;1782128;78;21162;-86
2020/12/27 10:35:27;;;;;;;7.60;4.23;;;;;;;2.88;54.80;101257.74;1774066;78;20996;-90
2020/12/27 10:38:25;;;;;;;7.30;5.83;;;;;;;2.93;54.17;101255.58;1723023;81;21126;-93
2020/12/27 10:44:15;;;;;;;9.07;8.17;;;;;;;2.86;54.57;101244.31;1798017;78;28151;-92
2020/12/27 10:47:27;;;;;;;3.23;2.93;;;;;;;2.84;54.93;101232.56;1758291;80;21876;-94
2020/12/27 10:50:10;;;;;;;6.37;1.80;;;;;;;2.91;52.25;101244.81;1734858;81;21234;-92
2020/12/27 10:53:06;;;;;;;1.57;0.80;;;;;;;2.81;53.05;101243.84;1750772;78;21160;-93
2020/12/27 10:55:49;;;;;;;1.20;0.73;;;;;;;2.76;52.37;101244.17;1710370;82;21156;-91
2020/12/27 10:58:19;;;;;;;0.40;0.40;;;;;;;2.73;52.06;101232.09;1776781;79;21228;-89
2020/12/27 11:00:49;;;;;;;1.97;1.60;;;;;;;2.72;52.75;101230.88;1718906;82;21265;-94
2020/12/27 11:03:19;;;;;;;1.60;1.50;;;;;;;2.71;52.82;101226.09;1742135;81;21136;-90
2020/12/27 11:05:48;;;;;;;2.33;1.67;;;;;;;2.73;53.11;101224.19;1747504;80;21154;-89
2020/12/27 11:08:17;;;;;;;6.23;3.13;;;;;;;2.79;52.94;101220.25;1711473;82;21314;-92
2020/12/27 11:10:52;;;;;;;4.27;3.13;;;;;;;2.85;53.19;101223.73;1705037;82;21197;-91
2020/12/27 11:13:20;;;;;;;5.80;4.17;;;;;;;2.83;53.32;101227.45;1695158;82;21208;-92
2020/12/27 11:16:10;;;;;;;;;;;;;;;;;;;;;
2020/12/27 11:19:00;;;;;;;3.73;3.43;;;;;;;2.73;53.86;101225.95;1672019;83;21169;-91
2020/12/27 11:21:29;;;;;;;6.67;4.87;;;;;;;2.73;54.11;101222.01;1692893;82;21303;-92
2020/12/27 11:23:59;;;;;;;10.23;4.97;;;;;;;2.39;54.28;101161.86;1687742;82;22272;-91
2020/12/27 11:26:29;;;;;;;8.57;5.43;;;;;;;2.77;54.39;101226.11;1700690;82;21330;-94
2020/12/27 11:28:56;;;;;;;7.30;5.27;;;;;;;2.72;54.39;101232.19;1697536;83;21263;-90
2020/12/27 11:31:25;;;;;;;6.73;5.77;;;;;;;2.68;55.25;101228.95;1704010;82;21208;-91
2020/12/27 11:33:54;;;;;;;6.20;5.13;;;;;;;2.68;55.65;101239.97;1718013;82;21409;-91
2020/12/27 11:36:24;;;;;;;6.50;5.30;;;;;;;2.66;55.40;101227.40;1698824;82;21270;-92
2020/12/27 11:38:52;;;;;;;7.20;5.37;;;;;;;2.66;55.24;101225.59;1681520;84;21358;-90
2020/12/27 11:41:19;;;;;;;6.50;5.60;;;;;;;2.68;55.46;101232.06;1645063;85;21231;-91
2020/12/27 11:43:47;;;;;;;4.97;4.47;;;;;;;2.71;55.72;101227.87;1659043;85;21233;-91
2020/12/27 11:46:26;;;;;;;4.23;3.60;;;;;;;2.73;55.50;101235.17;1683632;84;21268;-92
2020/12/27 11:48:56;;;;;;;3.70;3.40;;;;;;;2.75;55.34;101232.43;1668725;84;21218;-92
2020/12/27 11:51:30;;;;;;;3.07;2.83;;;;;;;2.74;54.97;101230.28;1649898;85;21333;-91
2020/12/27 11:54:00;;;;;;;3.97;2.67;;;;;;;2.78;54.62;101233.04;1702601;82;21208;-88
2020/12/27 11:56:31;;;;;;;5.80;3.70;;;;;;;2.81;54.70;101240.72;1708567;82;21358;-90
2020/12/27 11:58:58;;;;;;;8.70;3.77;;;;;;;2.81;55.06;101233.30;1702930;82;21624;-88
2020/12/27 12:01:32;;;;;;;7.53;3.10;;;;;;;2.85;54.84;101229.48;1699034;82;21217;-89
2020/12/27 12:03:58;;;;;;;3.43;2.53;;;;;;;2.87;54.58;101223.62;1680761;83;21223;-90
2020/12/27 12:06:54;;;;;;;6.17;4.77;;;;;;;2.90;54.05;101224.68;1691354;83;21208;-89
2020/12/27 12:09:32;;;;;;;4.57;3.77;;;;;;;2.80;54.34;101221.91;1681233;83;21164;-88
2020/12/27 12:12:19;;;;;;;7.80;5.37;;;;;;;2.77;54.57;101210.31;1682374;83;21203;-89
2020/12/27 12:15:36;;;;;;;2.97;2.23;;;;;;;2.76;54.68;101205.16;1691305;82;21255;-90
2020/12/27 12:18:04;;;;;;;3.03;2.63;;;;;;;2.78;53.96;101212.46;1693324;83;21195;-90
2020/12/27 12:21:05;;;;;;;2.97;2.70;;;;;;;2.70;53.70;101215.67;1691244;82;21146;-90
2020/12/27 12:23:36;;;;;;;3.27;1.80;;;;;;;2.63;53.70;101210.51;1701549;82;21248;-87
2020/12/27 12:26:08;;;;;;;2.33;1.97;;;;;;;2.54;53.59;101208.08;1703347;82;21235;-88
2020/12/27 12:28:45;;;;;;;2.70;1.30;;;;;;;2.51;53.21;101203.89;1670362;84;21278;-86
2020/12/27 12:31:28;;;;;;;4.50;1.47;;;;;;;2.47;53.28;101204.25;1654861;85;21730;-92
2020/12/27 12:34:47;;;;;;;1.57;1.43;;;;;;;2.50;53.43;101204.00;1791687;79;24368;-90
2020/12/27 12:37:17;;;;;;;1.87;1.50;;;;;;;2.42;53.42;101211.64;1717954;79;21139;-91
2020/12/27 12:39:51;;;;;;;3.87;1.97;;;;;;;2.38;53.65;101216.28;1736202;80;21145;-88
2020/12/27 12:42:27;;;;;;;2.33;2.10;;;;;;;2.36;53.79;101213.42;1739999;80;21140;-89
2020/12/27 12:45:21;;;;;;;2.37;1.97;;;;;;;2.34;53.84;101218.79;1731114;82;21196;-89
2020/12/27 12:48:02;;;;;;;3.63;2.87;;;;;;;2.37;53.84;101213.28;1750328;80;21199;-89
2020/12/27 12:50:34;;;;;;;3.13;2.17;;;;;;;2.37;54.11;101211.13;1723527;81;21204;-89
2020/12/27 12:53:22;;;;;;;2.67;2.03;;;;;;;2.41;54.29;101220.02;1715771;81;21172;-91
2020/12/27 12:56:28;;;;;;;8.03;2.67;;;;;;;2.43;54.24;101201.45;1792031;78;23024;-89
2020/12/27 12:59:08;;;;;;;4.10;2.43;;;;;;;2.32;54.39;101210.17;1782868;79;21347;-89
2020/12/27 13:01:40;;;;;;;7.43;3.40;;;;;;;2.31;54.96;101220.31;1738729;80;21290;-89
2020/12/27 13:04:41;;;;;;;;;;;;;;;;;;;;;
2020/12/27 13:07:19;;;;;;;3.93;3.20;;;;;;;2.37;54.41;101215.08;1767089;76;23898;-90
2020/12/27 13:09:53;;;;;;;4.47;2.87;;;;;;;2.35;54.71;101217.81;1688866;83;21218;-89
2020/12/27 13:12:23;;;;;;;3.67;3.37;;;;;;;2.35;54.37;101217.81;1697995;83;21159;-88
2020/12/27 13:14:58;;;;;;;2.93;2.63;;;;;;;2.40;54.50;101215.69;1696882;83;21337;-90
2020/12/27 13:17:32;;;;;;;5.73;3.73;;;;;;;2.43;54.32;101210.67;1678281;83;21204;-88
2020/12/27 13:20:05;;;;;;;7.57;4.07;;;;;;;2.49;54.51;101218.96;1667703;84;21318;-91
2020/12/27 13:22:40;;;;;;;7.17;4.67;;;;;;;2.56;54.14;101214.06;1621373;86;21216;-90
2020/12/27 13:25:18;;;;;;;9.50;5.00;;;;;;;2.59;53.72;101220.42;1627283;87;21151;-87
2020/12/27 13:41:06;;;;;;;3.40;3.10;;;;;;;2.36;53.93;101221.31;1787449;77;25238;-89
2020/12/27 13:44:11;;;;;;;;;;;;;;;;;;;;;
2020/12/27 13:46:59;;;;;;;3.97;3.33;;;;;;;2.30;54.27;101222.60;1807510;78;23050;-90
2020/12/27 13:49:42;;;;;;;;;;;;;;;;;;;;;
2020/12/27 13:52:18;;;;;;;4.63;3.37;;;;;;;2.21;54.44;101240.37;1656332;82;21297;-90
2020/12/27 13:55:27;;;;;;;4.17;3.37;;;;;;;2.19;54.70;101243.59;1695225;83;21457;-90
2020/12/27 14:08:30;;;;;;;5.93;3.70;;;;;;;1.88;55.17;101234.78;1804679;78;22970;-91
2020/12/27 14:11:09;;;;;;;5.27;3.20;;;;;;;1.77;55.22;101244.39;1740540;80;21722;-88
2020/12/27 14:13:54;;;;;;;4.57;3.47;;;;;;;1.80;55.33;101237.62;1806073;77;23543;-91
2020/12/27 14:16:21;;;;;;;4.80;4.27;;;;;;;1.76;55.27;101242.25;1809258;79;21129;-89
2020/12/27 14:18:52;;;;;;;4.93;3.43;;;;;;;1.74;55.37;101241.52;1806014;78;21306;-88
2020/12/27 14:21:23;;;;;;;4.67;4.20;;;;;;;1.77;55.31;101233.87;1744112;80;21177;-91
2020/12/27 14:23:59;;;;;;;5.97;4.53;;;;;;;1.74;55.59;101242.35;1761113;79;21184;-89
2020/12/27 14:26:49;;;;;;;10.43;6.30;;;;;;;1.78;55.58;101236.41;1770795;80;21172;-91
2020/12/27 14:29:25;;;;;;;4.80;4.13;;;;;;;1.75;55.87;101232.67;1772432;80;21737;-87
2020/12/27 14:31:53;;;;;;;5.53;5.03;;;;;;;1.75;56.03;101240.10;1783478;79;21172;-87
2020/12/27 14:34:26;;;;;;;7.90;5.67;;;;;;;1.75;56.35;101236.61;1795187;79;21189;-90
2020/12/27 14:36:57;;;;;;;7.93;4.57;;;;;;;1.76;56.42;101227.79;1672620;84;21141;-89
2020/12/27 14:39:24;;;;;;;7.83;5.43;;;;;;;1.73;56.73;101230.63;1658108;85;21207;-88
2020/12/27 14:41:58;;;;;;;7.07;5.07;;;;;;;1.72;56.78;101223.22;1645272;86;21367;-91
2020/12/27 14:44:30;;;;;;;11.53;4.87;;;;;;;1.69;56.76;101211.61;1634450;86;21226;-92
2020/12/27 14:47:03;;;;;;;8.83;4.42;;;;;;;1.70;56.69;101217.23;1634564;86;21631;-88
2020/12/27 14:53:59;;;;;;;4.43;3.80;;;;;;;1.71;56.92;101214.13;1795923;78;28987;-90
2020/12/27 14:56:45;;;;;;;9.07;6.27;;;;;;;1.65;57.24;101221.97;1736547;78;21195;-89
2020/12/27 14:59:32;;;;;;;8.20;5.80;;;;;;;1.56;57.57;101216.05;1709285;82;21702;-90
2020/12/27 15:02:24;;;;;;;12.33;7.90;;;;;;;1.53;57.75;101207.09;1679560;83;21179;-89
2020/12/27 15:19:24;;;;;;;24.47;13.77;;;;;;;1.30;59.36;101219.19;1713089;82;22505;-90
2020/12/27 15:22:42;;;;;;;26.80;14.97;;;;;;;1.16;59.73;101210.97;1838504;75;22881;-90
2020/12/27 15:25:11;;;;;;;26.90;16.00;;;;;;;1.09;59.84;101214.50;1818662;78;21120;-91
2020/12/27 15:27:44;;;;;;;19.67;12.90;;;;;;;1.05;59.99;101220.05;1780996;78;21108;-93
2020/12/27 15:30:13;;;;;;;20.07;14.17;;;;;;;1.02;60.05;101218.94;1820731;76;21113;-89
2020/12/27 15:32:42;;;;;;;19.33;13.13;;;;;;;0.95;60.29;101229.86;1827669;77;21149;-88
2020/12/27 15:35:09;;;;;;;20.73;14.43;;;;;;;0.94;60.33;101224.27;1819730;76;21151;-91
2020/12/27 15:37:38;;;;;;;18.03;12.83;;;;;;;0.96;60.25;101221.06;1728225;80;21155;-88
2020/12/27 15:40:11;;;;;;;18.00;11.80;;;;;;;0.94;60.44;101223.39;1743445;80;21201;-89
2020/12/27 15:42:45;;;;;;;21.10;12.40;;;;;;;0.98;60.36;101217.02;1729206;81;21176;-89
2020/12/27 15:45:22;;;;;;;17.13;11.23;;;;;;;0.92;60.62;101219.59;1757365;80;21157;-89
2020/12/27 15:48:04;;;;;;;18.13;11.63;;;;;;;1.00;60.64;101216.44;1818893;77;22893;-89
2020/12/27 15:50:52;;;;;;;16.03;10.87;;;;;;;0.96;60.58;101222.37;1818977;78;21160;-87
2020/12/27 15:53:19;;;;;;;16.57;12.40;;;;;;;0.96;60.63;101226.75;1809131;78;21241;-89
2020/12/27 15:56:04;;;;;;;;;;;;;;;;;;;;;
2020/12/27 15:58:52;;;;;;;21.70;13.53;;;;;;;0.94;60.92;101208.52;1770731;79;24377;-92
2020/12/27 16:01:26;;;;;;;15.87;11.40;;;;;;;0.87;61.24;101210.34;1782877;80;21180;-88
2020/12/27 16:03:54;;;;;;;15.27;11.60;;;;;;;0.83;61.44;101228.53;1757650;78;21168;-88
2020/12/27 16:06:52;;;;;;;15.63;11.23;;;;;;;0.85;61.56;101228.82;1738628;78;22994;-89
2020/12/27 16:10:28;;;;;;;14.10;9.87;;;;;;;0.80;61.95;101228.28;1886525;74;23344;-90
2020/12/27 16:12:57;;;;;;;16.17;12.03;;;;;;;0.77;61.82;101228.02;1864642;75;21211;-89
2020/12/27 16:15:24;;;;;;;17.27;11.60;;;;;;;0.71;62.00;101222.33;1860350;75;21267;-88
2020/12/27 16:17:52;;;;;;;13.87;10.33;;;;;;;0.71;62.23;101239.39;1835162;75;21225;-88
2020/12/27 16:20:25;;;;;;;20.27;12.80;;;;;;;0.68;62.35;101240.45;1842078;77;21179;-88
2020/12/27 16:22:56;;;;;;;16.07;11.00;;;;;;;0.70;62.48;101232.48;1846750;77;21866;-89
2020/12/27 16:25:24;;;;;;;14.60;10.30;;;;;;;0.68;62.65;101227.77;1768023;77;21313;-90
2020/12/27 16:27:55;;;;;;;16.37;11.20;;;;;;;0.66;62.70;101220.48;1843663;75;21163;-90
2020/12/27 16:30:22;;;;;;;13.17;10.63;;;;;;;0.66;62.89;101213.92;1830942;77;21178;-90
2020/12/27 16:32:50;;;;;;;15.77;9.77;;;;;;;0.68;62.80;101220.77;1834594;75;21598;-91
2020/12/27 16:35:18;;;;;;;17.97;9.63;;;;;;;0.74;62.77;101220.83;1830392;77;21165;-90
2020/12/27 16:37:50;;;;;;;11.40;9.17;;;;;;;0.71;62.92;101216.60;1793290;78;21162;-90
2020/12/27 16:40:17;;;;;;;14.93;9.43;;;;;;;0.70;63.03;101207.07;1809685;78;21764;-90
2020/12/27 16:42:44;;;;;;;11.83;9.13;;;;;;;0.69;62.84;101200.61;1776640;80;21160;-89
2020/12/27 16:45:13;;;;;;;14.90;9.73;;;;;;;0.70;63.01;101204.92;1767385;80;21148;-91
2020/12/27 16:47:43;;;;;;;15.47;10.13;;;;;;;0.66;63.13;101207.36;1774647;79;21653;-88
2020/12/27 16:50:14;;;;;;;14.77;9.30;;;;;;;0.58;63.14;101203.48;1760679;80;21403;-87
2020/12/27 16:52:42;;;;;;;14.03;8.97;;;;;;;0.50;63.52;101201.83;1747037;80;21160;-91
2020/12/27 16:55:10;;;;;;;13.20;9.50;;;;;;;0.45;63.63;101202.59;1747921;81;21216;-89
2020/12/27 16:57:37;;;;;;;12.73;9.27;;;;;;;0.36;63.91;101194.89;1741241;81;21322;-88
2020/12/27 17:00:08;;;;;;;12.67;9.50;;;;;;;0.36;63.84;101202.75;1743754;81;21213;-89
2020/12/27 17:02:44;;;;;;;14.87;9.03;;;;;;;0.37;63.80;101199.17;1728912;81;21787;-88
2020/12/27 17:05:15;;;;;;;12.77;9.07;;;;;;;0.10;63.93;101150.70;1727426;81;21193;-90
2020/12/27 17:07:48;;;;;;;9.57;7.37;;;;;;;0.28;64.12;101178.80;1715545;82;21317;-88
2020/12/27 17:10:32;;;;;;;17.30;8.60;;;;;;;0.31;64.32;101182.53;1763295;80;23520;-88
2020/12/27 17:13:04;;;;;;;12.50;10.23;;;;;;;0.24;64.43;101172.55;1756029;81;21168;-90
2020/12/27 17:15:52;;;;;;;11.87;9.80;;;;;;;0.24;64.52;101177.80;1743187;81;21271;-90
2020/12/27 17:18:22;;;;;;;14.00;9.50;;;;;;;0.21;64.96;101186.72;1761393;80;21188;-87
2020/12/27 17:20:52;;;;;;;15.17;10.33;;;;;;;0.15;65.09;101190.58;1759980;80;21187;-92
2020/12/27 17:23:42;;;;;;;14.63;10.00;;;;;;;0.11;65.24;101189.08;1765441;81;21200;-91
2020/12/27 17:26:20;;;;;;;14.37;9.73;;;;;;;0.07;65.50;101191.53;1754591;79;21136;-89
2020/12/27 17:29:32;;;;;;;13.90;10.73;;;;;;;0.04;65.74;101194.38;1762244;81;21188;-90
2020/12/27 17:32:00;;;;;;;10.20;7.43;;;;;;;-0.06;66.22;101192.81;1740680;81;21192;-88
2020/12/27 17:34:39;;;;;;;;;;;;;;;;;;;;;
2020/12/27 17:37:08;;;;;;;13.07;8.97;;;;;;;-0.11;66.73;101188.81;1793873;77;23388;-89
2020/12/27 17:39:36;;;;;;;12.70;8.93;;;;;;;-0.15;66.74;101197.33;1767164;80;21121;-89
2020/12/27 17:42:08;;;;;;;13.07;9.03;;;;;;;-0.13;66.68;101197.21;1771274;80;21175;-86
2020/12/27 17:44:38;;;;;;;15.10;11.57;;;;;;;-0.12;66.62;101197.12;1763988;80;21146;-92
2020/12/27 17:50:31;;;;;;;16.43;10.90;;;;;;;-0.11;66.80;101199.30;1641537;85;21187;-88
2020/12/27 17:53:34;;;;;;;17.17;11.70;;;;;;;-0.09;66.81;101183.83;1793191;78;22867;-87
2020/12/27 17:58:52;;;;;;;18.43;11.53;;;;;;;-0.21;67.21;101188.53;1735029;80;21193;-91
2020/12/27 18:01:24;;;;;;;15.23;11.17;;;;;;;-0.27;67.48;101191.55;1698986;80;21488;-92
2020/12/27 18:03:53;;;;;;;18.00;11.93;;;;;;;-0.32;67.73;101177.89;1727448;81;21183;-91
2020/12/27 18:06:22;;;;;;;17.07;12.37;;;;;;;-0.32;67.85;101183.13;1661185;83;21091;-87
2020/12/27 18:08:55;;;;;;;18.03;12.63;;;;;;;-0.32;67.80;101184.00;1659633;86;21167;-91
2020/12/27 18:11:26;;;;;;;16.10;11.40;;;;;;;-0.31;67.83;101179.11;1668375;86;21182;-90
2020/12/27 18:13:56;;;;;;;17.23;12.50;;;;;;;-0.30;67.71;101180.81;1616380;86;21223;-89
2020/12/27 18:16:28;;;;;;;20.63;11.20;;;;;;;-0.29;67.62;101163.30;1660279;85;21221;-90
2020/12/27 18:18:58;;;;;;;17.33;11.80;;;;;;;-0.29;67.86;101162.82;1643688;86;21299;-90
2020/12/27 18:21:34;;;;;;;13.97;10.60;;;;;;;-0.25;67.62;101149.89;1669764;84;21278;-89
2020/12/27 18:24:05;;;;;;;19.25;12.65;;;;;;;-0.28;67.82;101157.97;1670024;84;21243;-90